Time;durP1;ratioP1;P1;durP2;ratioP2;P2;SDS_P1;SDS_P2;PMS_P1;PMS_P2;Temp;Humidity;BMP_temperature;BMP_pressure;BME280_temperature;BME280_humidity;BME280_pressure;Samples;Min_cycle;Max_cycle;Signal;HPM_P1;HPM_P2
2022/12/22 03:27:34;;;;;;;93.53;45.22;;;8.90;99.90;;;;;;7365905;19;20015;-47
2022/12/22 03:30:00;;;;;;;94.07;43.38;;;8.90;99.90;;;;;;7369858;19;20405;-43
2022/12/22 03:32:26;;;;;;;96.28;44.83;;;8.90;99.90;;;;;;7371534;19;20022;-44
2022/12/22 03:34:52;;;;;;;98.35;43.90;;;8.90;99.90;;;;;;7369454;19;20366;-44
2022/12/22 03:37:22;;;;;;;102.43;47.05;;;8.90;99.90;;;;;;7365212;19;20372;-44
2022/12/22 03:39:48;;;;;;;113.90;50.33;;;9.00;99.90;;;;;;7367478;19;20010;-44
2022/12/22 03:47:45;;;;;;;116.72;49.30;;;9.00;99.90;;;;;;7370553;19;20010;-44
2022/12/22 03:50:12;;;;;;;116.95;49.05;;;9.00;99.90;;;;;;7380414;19;20220;-44
2022/12/22 03:52:38;;;;;;;126.43;49.55;;;9.00;99.90;;;;;;7373008;19;20409;-43
2022/12/22 03:55:07;;;;;;;122.68;49.63;;;9.00;99.90;;;;;;7379941;19;20019;-44
2022/12/22 03:57:36;;;;;;;131.68;50.70;;;8.90;99.90;;;;;;7377977;19;20043;-43
2022/12/22 04:00:03;;;;;;;103.88;46.22;;;8.90;99.90;;;;;;7376045;19;20014;-44
2022/12/22 04:02:38;;;;;;;117.18;49.20;;;8.90;99.90;;;;;;7373728;19;20014;-45
2022/12/22 04:05:05;;;;;;;123.22;50.40;;;8.90;99.90;;;;;;7373436;19;20420;-46
2022/12/22 04:07:31;;;;;;;114.10;49.00;;;8.90;99.90;;;;;;7376839;19;20045;-46
2022/12/22 04:12:54;;;;;;;120.60;47.13;;;8.90;99.90;;;;;;7371767;19;20014;-43
2022/12/22 04:15:30;;;;;;;127.70;49.70;;;8.90;99.90;;;;;;7376157;19;20023;-44
2022/12/22 04:18:01;;;;;;;135.45;51.92;;;8.90;99.90;;;;;;7375841;19;20370;-46
2022/12/22 04:20:27;;;;;;;136.27;50.13;;;8.90;99.90;;;;;;7374213;19;20127;-44
2022/12/22 04:22:55;;;;;;;119.00;48.80;;;9.00;99.90;;;;;;7371117;19;20046;-46
2022/12/22 04:25:22;;;;;;;129.18;50.50;;;8.90;99.90;;;;;;7375649;19;20346;-46
2022/12/22 04:27:48;;;;;;;131.35;50.03;;;8.90;99.90;;;;;;7375371;19;20023;-44
2022/12/22 04:30:16;;;;;;;125.65;50.08;;;8.90;99.90;;;;;;7372622;19;20596;-44
2022/12/22 04:32:42;;;;;;;133.68;49.83;;;8.90;99.90;;;;;;7374913;19;20035;-43
2022/12/22 04:35:09;;;;;;;126.05;49.13;;;8.90;99.90;;;;;;7373777;19;20668;-44
2022/12/22 04:37:36;;;;;;;137.32;49.83;;;8.90;99.90;;;;;;7376059;19;20022;-46
2022/12/22 04:40:02;;;;;;;126.70;48.90;;;8.90;99.90;;;;;;7372133;19;20074;-43
2022/12/22 04:42:29;;;;;;;116.20;46.03;;;8.90;99.90;;;;;;7377480;19;20015;-48
2022/12/22 04:44:55;;;;;;;115.70;46.58;;;9.00;99.90;;;;;;7372686;19;20037;-46
2022/12/22 04:47:21;;;;;;;145.23;48.95;;;8.90;99.90;;;;;;7373289;19;20417;-44
2022/12/22 04:49:48;;;;;;;129.05;47.60;;;8.90;99.90;;;;;;7376320;19;20086;-47
2022/12/22 04:52:15;;;;;;;131.27;47.17;;;9.00;99.90;;;;;;7377096;19;20018;-45
2022/12/22 04:54:41;;;;;;;128.43;47.63;;;8.90;99.90;;;;;;7370020;19;20019;-45
2022/12/22 04:57:07;;;;;;;105.55;45.10;;;9.00;99.90;;;;;;7375889;19;20026;-46
2022/12/22 04:59:33;;;;;;;115.13;44.83;;;8.90;99.90;;;;;;7371819;19;20048;-43
2022/12/22 05:02:00;;;;;;;91.55;40.78;;;9.00;99.90;;;;;;7372080;19;20021;-44
2022/12/22 05:04:26;;;;;;;92.65;40.03;;;8.90;99.90;;;;;;7372400;19;20019;-46
2022/12/22 05:06:52;;;;;;;89.00;41.33;;;8.90;99.90;;;;;;7369626;19;20482;-48
2022/12/22 05:09:18;;;;;;;98.10;38.70;;;9.00;99.90;;;;;;7375113;19;20081;-44
2022/12/22 05:11:45;;;;;;;102.25;41.67;;;8.90;99.90;;;;;;7369800;19;20029;-43
2022/12/22 05:14:11;;;;;;;108.90;42.95;;;8.90;99.90;;;;;;7374707;19;20015;-43
2022/12/22 05:16:40;;;;;;;99.95;41.55;;;9.00;99.90;;;;;;7369807;19;20018;-44
2022/12/22 05:19:07;;;;;;;102.60;41.47;;;8.90;99.90;;;;;;7373297;19;20029;-45
2022/12/22 05:21:33;;;;;;;99.47;40.63;;;8.90;99.90;;;;;;7373698;19;20822;-44
2022/12/22 05:23:59;;;;;;;105.60;42.47;;;9.00;99.90;;;;;;7372240;19;20025;-45
2022/12/22 05:26:26;;;;;;;117.32;42.88;;;8.90;99.90;;;;;;7371505;19;20018;-47
2022/12/22 05:28:52;;;;;;;95.65;40.60;;;9.00;99.90;;;;;;7369746;19;20040;-44
2022/12/22 05:31:22;;;;;;;101.50;40.28;;;8.90;99.90;;;;;;7373206;19;20022;-46
2022/12/22 05:33:50;;;;;;;100.18;39.90;;;8.90;99.90;;;;;;7368420;19;20014;-46
2022/12/22 05:36:17;;;;;;;96.65;39.40;;;8.90;99.90;;;;;;7372435;19;20389;-46
2022/12/22 05:38:44;;;;;;;101.60;39.45;;;8.90;99.90;;;;;;7371507;19;20572;-44
2022/12/22 05:41:11;;;;;;;99.07;40.35;;;8.90;99.90;;;;;;7371474;19;20026;-47
2022/12/22 05:43:37;;;;;;;100.38;38.78;;;8.90;99.90;;;;;;7368515;19;20022;-44
2022/12/22 05:46:08;;;;;;;93.35;37.72;;;8.90;99.90;;;;;;7372113;19;20102;-44
2022/12/22 05:48:37;;;;;;;95.05;38.53;;;9.00;99.90;;;;;;7372828;19;20390;-45
2022/12/22 05:51:04;;;;;;;111.00;40.38;;;8.90;99.90;;;;;;7368881;19;20036;-46
2022/12/22 05:53:31;;;;;;;98.88;39.90;;;8.90;99.90;;;;;;7373483;19;20103;-45
2022/12/22 05:55:57;;;;;;;90.95;38.38;;;8.90;99.90;;;;;;7371569;19;20979;-43
2022/12/22 05:58:23;;;;;;;110.00;40.72;;;8.90;99.90;;;;;;7373353;19;20497;-43
2022/12/22 06:00:50;;;;;;;104.57;38.78;;;8.90;99.90;;;;;;7372041;19;20019;-43
2022/12/22 06:03:20;;;;;;;109.88;39.22;;;8.90;99.90;;;;;;7372340;19;20541;-43
2022/12/22 06:05:49;;;;;;;100.10;38.80;;;8.90;99.90;;;;;;7371961;19;20017;-45
2022/12/22 06:08:15;;;;;;;99.18;38.65;;;9.00;99.90;;;;;;7371228;19;20042;-44
2022/12/22 06:10:41;;;;;;;100.35;39.20;;;9.00;99.90;;;;;;7371049;19;20074;-44
2022/12/22 06:13:08;;;;;;;111.50;40.08;;;9.00;99.90;;;;;;7369008;19;20015;-45
2022/12/22 06:15:34;;;;;;;105.93;38.67;;;9.00;99.90;;;;;;7369391;19;20018;-47
2022/12/22 06:18:00;;;;;;;95.32;38.03;;;9.00;99.90;;;;;;7362480;19;20409;-43
2022/12/22 06:20:27;;;;;;;101.45;37.75;;;9.00;99.90;;;;;;7371244;19;20029;-47
2022/12/22 06:22:53;;;;;;;104.57;40.58;;;9.00;99.90;;;;;;7369006;19;20580;-47
2022/12/22 06:25:19;;;;;;;99.13;40.35;;;9.00;99.90;;;;;;7370894;19;20017;-45
2022/12/22 06:27:46;;;;;;;90.05;38.42;;;9.00;99.90;;;;;;7365380;19;20387;-47
2022/12/22 06:30:14;;;;;;;89.57;38.58;;;8.90;99.90;;;;;;7368605;19;20363;-44
2022/12/22 06:32:42;;;;;;;82.32;35.08;;;9.00;99.90;;;;;;7363725;19;20055;-45
2022/12/22 06:35:10;;;;;;;86.10;37.47;;;8.90;99.90;;;;;;7363087;19;21032;-45
2022/12/22 06:37:36;;;;;;;86.38;36.40;;;8.90;99.90;;;;;;7368762;19;20030;-45
2022/12/22 06:40:03;;;;;;;85.28;38.03;;;8.90;99.90;;;;;;7366917;19;20054;-45
2022/12/22 06:45:14;;;;;;;92.60;37.20;;;8.80;99.90;;;;;;7365433;19;20038;-45
2022/12/22 06:47:40;;;;;;;92.10;38.60;;;8.80;99.90;;;;;;7366519;19;20050;-44
2022/12/22 06:50:07;;;;;;;81.65;37.63;;;8.80;99.90;;;;;;7369379;19;20478;-44
2022/12/22 06:52:34;;;;;;;82.70;35.42;;;8.80;99.90;;;;;;7368702;19;20578;-45
2022/12/22 06:55:03;;;;;;;87.10;36.42;;;8.70;99.90;;;;;;7370245;19;20086;-44
2022/12/22 06:57:49;;;;;;;79.10;33.50;;;8.60;99.90;;;;;;7368783;19;20034;-45
2022/12/22 07:00:18;;;;;;;84.25;36.22;;;8.60;99.90;;;;;;7370664;19;20111;-43
2022/12/22 07:02:45;;;;;;;72.63;32.03;;;8.50;99.90;;;;;;7367181;19;20030;-44
2022/12/22 07:05:12;;;;;;;74.20;31.92;;;8.50;99.90;;;;;;7372615;19;20086;-48
2022/12/22 07:07:38;;;;;;;83.50;38.20;;;8.40;99.90;;;;;;7366508;19;20076;-45
2022/12/22 07:10:05;;;;;;;72.63;31.40;;;8.30;99.90;;;;;;7368115;19;20642;-43
2022/12/22 07:12:32;;;;;;;72.90;31.85;;;8.20;99.90;;;;;;7365113;19;20434;-44
2022/12/22 07:14:58;;;;;;;68.78;30.40;;;8.10;99.90;;;;;;7369233;19;20030;-44
2022/12/22 07:17:24;;;;;;;80.88;31.33;;;8.00;99.90;;;;;;7369583;19;20015;-44
2022/12/22 07:19:50;;;;;;;79.25;31.65;;;7.90;99.90;;;;;;7368018;19;20018;-43
2022/12/22 07:22:16;;;;;;;75.43;32.03;;;7.80;99.90;;;;;;7363332;19;20015;-47
2022/12/22 07:24:43;;;;;;;68.30;30.35;;;7.80;99.90;;;;;;7368595;19;20715;-43
2022/12/22 07:27:09;;;;;;;71.35;28.70;;;7.70;99.90;;;;;;7366166;19;20023;-44
2022/12/22 07:29:35;;;;;;;77.13;30.42;;;7.60;99.90;;;;;;7371085;19;20064;-45
2022/12/22 07:32:02;;;;;;;82.85;30.38;;;7.60;99.90;;;;;;7370341;19;20510;-46
2022/12/22 07:34:28;;;;;;;77.72;31.02;;;7.50;99.90;;;;;;7368072;19;20026;-46
2022/12/22 07:36:55;;;;;;;89.15;30.92;;;7.40;99.90;;;;;;7368342;19;20378;-45
2022/12/22 07:39:21;;;;;;;85.95;30.88;;;7.30;99.90;;;;;;7369558;19;20584;-44
2022/12/22 07:44:32;;;;;;;119.10;36.00;;;7.20;99.90;;;;;;7364320;19;20022;-45
2022/12/22 07:46:59;;;;;;;118.35;37.45;;;7.10;99.90;;;;;;7365115;19;20014;-45
2022/12/22 07:52:12;;;;;;;136.75;38.03;;;7.30;99.90;;;;;;7364889;19;20394;-44
2022/12/22 07:54:39;;;;;;;129.73;38.55;;;7.30;99.90;;;;;;7366869;19;20026;-46
2022/12/22 07:57:06;;;;;;;129.93;37.50;;;7.40;99.90;;;;;;7365186;19;20049;-46
2022/12/22 07:59:33;;;;;;;137.68;39.22;;;7.50;99.90;;;;;;7368885;19;20073;-46
2022/12/22 08:01:59;;;;;;;131.45;38.20;;;7.50;99.90;;;;;;7368767;19;20019;-44
2022/12/22 08:04:25;;;;;;;146.30;38.42;;;7.60;99.90;;;;;;7367885;19;20082;-47
2022/12/22 08:06:52;;;;;;;137.40;37.63;;;7.60;99.90;;;;;;7371070;19;20549;-46
2022/12/22 08:09:20;;;;;;;146.27;35.72;;;7.60;99.90;;;;;;7367341;19;20015;-44
2022/12/22 08:11:48;;;;;;;161.70;40.50;;;7.70;99.90;;;;;;7366265;19;20061;-43
2022/12/22 08:14:14;;;;;;;145.90;37.22;;;7.70;99.90;;;;;;7363139;19;20022;-45
2022/12/22 08:16:51;;;;;;;143.02;39.20;;;7.70;99.90;;;;;;7359339;19;20019;-45
2022/12/22 08:19:18;;;;;;;133.23;36.63;;;7.70;99.90;;;;;;7345968;19;20687;-46
2022/12/22 08:21:47;;;;;;;147.80;37.20;;;7.70;99.90;;;;;;7359970;19;20500;-44
2022/12/22 08:24:13;;;;;;;116.05;33.92;;;7.60;99.90;;;;;;7357285;19;20030;-45
2022/12/22 08:26:45;;;;;;;123.10;34.10;;;7.60;99.90;;;;;;7354435;19;20426;-48
2022/12/22 08:29:20;;;;;;;118.75;33.67;;;7.70;99.90;;;;;;7356386;19;20018;-43
2022/12/22 08:31:46;;;;;;;122.65;33.17;;;7.70;99.90;;;;;;7356417;19;20045;-46
2022/12/22 08:34:15;;;;;;;120.75;32.53;;;7.70;99.90;;;;;;7358776;19;20018;-43
2022/12/22 08:36:45;;;;;;;92.50;30.02;;;7.70;99.90;;;;;;7366433;19;20093;-44
2022/12/22 08:39:13;;;;;;;103.88;33.25;;;7.80;99.90;;;;;;7365268;19;20018;-45
2022/12/22 08:41:49;;;;;;;57.85;26.13;;;7.80;99.90;;;;;;7368053;19;20052;-45
2022/12/22 08:44:25;;;;;;;59.92;25.95;;;7.70;99.90;;;;;;7366040;19;20521;-45
2022/12/22 08:46:54;;;;;;;63.72;25.50;;;7.70;99.90;;;;;;7364615;19;20037;-44
2022/12/22 08:49:21;;;;;;;69.53;26.60;;;7.70;99.90;;;;;;7363281;19;20014;-45
2022/12/22 08:51:48;;;;;;;61.15;26.70;;;7.80;99.90;;;;;;7365873;19;20019;-45
2022/12/22 08:54:15;;;;;;;49.90;22.23;;;7.80;99.90;;;;;;7363557;19;20461;-44
2022/12/22 08:56:43;;;;;;;52.13;24.02;;;7.80;99.90;;;;;;7364303;19;20481;-44
2022/12/22 08:59:10;;;;;;;60.92;25.15;;;7.70;99.90;;;;;;7363720;19;20613;-45
2022/12/22 09:01:41;;;;;;;59.45;26.23;;;7.70;99.90;;;;;;7368660;19;20023;-43
2022/12/22 09:04:07;;;;;;;67.57;26.53;;;7.70;99.90;;;;;;7355834;19;20062;-46
2022/12/22 09:06:34;;;;;;;63.25;26.50;;;7.70;99.90;;;;;;7363185;19;20021;-43
2022/12/22 09:09:03;;;;;;;66.07;25.98;;;7.60;99.90;;;;;;7356750;19;21277;-46
2022/12/22 09:11:29;;;;;;;58.25;23.83;;;7.70;99.90;;;;;;7365034;19;20026;-46
2022/12/22 09:14:09;;;;;;;52.65;20.95;;;7.70;99.90;;;;;;7365715;19;20385;-44
2022/12/22 09:16:37;;;;;;;54.75;21.98;;;7.70;99.90;;;;;;7359392;19;20410;-45
2022/12/22 09:19:03;;;;;;;61.50;23.67;;;7.70;99.90;;;;;;7365793;19;20030;-48
2022/12/22 09:21:33;;;;;;;67.25;24.10;;;7.70;99.90;;;;;;7362259;19;20015;-47
2022/12/22 09:23:59;;;;;;;61.03;22.50;;;7.60;99.90;;;;;;7362685;19;20026;-44
2022/12/22 09:26:27;;;;;;;74.15;23.17;;;7.60;99.90;;;;;;7364626;19;20014;-45
2022/12/22 09:28:54;;;;;;;80.05;22.52;;;7.60;99.90;;;;;;7368883;19;20383;-47
2022/12/22 09:31:22;;;;;;;92.80;23.65;;;7.60;99.90;;;;;;7363674;19;20026;-49
2022/12/22 09:33:48;;;;;;;119.30;26.73;;;7.50;99.90;;;;;;7362308;19;20061;-44
2022/12/22 09:36:18;;;;;;;100.57;24.33;;;7.50;99.90;;;;;;7363323;19;20508;-46
2022/12/22 09:38:44;;;;;;;106.82;24.38;;;7.50;99.90;;;;;;7366429;19;20035;-46
2022/12/22 09:41:42;;;;;;;137.20;25.58;;;7.50;99.90;;;;;;7367289;19;20018;-47
2022/12/22 09:44:20;;;;;;;142.27;24.40;;;7.50;99.90;;;;;;7366366;19;20022;-51
2022/12/22 09:46:46;;;;;;;122.35;22.67;;;7.40;99.90;;;;;;7363023;19;20035;-44
2022/12/22 09:49:15;;;;;;;119.03;23.42;;;7.40;99.90;;;;;;7367129;19;20026;-45
2022/12/22 09:51:51;;;;;;;74.13;19.15;;;7.40;99.90;;;;;;7363272;19;20452;-44
2022/12/22 09:54:18;;;;;;;51.22;19.27;;;7.40;99.90;;;;;;7353579;19;20022;-46
2022/12/22 09:56:45;;;;;;;47.85;18.48;;;7.40;99.90;;;;;;7363222;19;20022;-45
2022/12/22 09:59:14;;;;;;;46.10;18.63;;;7.40;99.90;;;;;;7367138;19;20110;-47
2022/12/22 10:01:49;;;;;;;40.95;17.00;;;7.40;99.90;;;;;;7367805;19;20469;-45
2022/12/22 10:04:40;;;;;;;45.90;19.35;;;7.40;99.90;;;;;;7363721;19;20019;-46
2022/12/22 10:07:32;;;;;;;44.58;19.58;;;7.40;99.90;;;;;;7359909;19;20677;-45
2022/12/22 10:10:23;;;;;;;40.72;18.13;;;7.50;99.90;;;;;;7364577;19;20025;-45
2022/12/22 10:12:51;;;;;;;49.55;19.33;;;7.60;99.90;;;;;;7360377;19;20018;-45
2022/12/22 10:15:17;;;;;;;46.10;19.58;;;7.70;99.90;;;;;;7364690;19;20406;-44
2022/12/22 10:17:44;;;;;;;43.60;20.05;;;7.90;99.90;;;;;;7362966;19;20022;-44
2022/12/22 10:20:20;;;;;;;37.83;19.67;;;8.20;99.90;;;;;;7365769;19;20015;-45
2022/12/22 10:23:01;;;;;;;31.95;17.55;;;8.10;99.90;;;;;;7367108;19;20026;-46
2022/12/22 10:25:42;;;;;;;32.30;17.92;;;8.10;99.90;;;;;;7366096;19;20083;-46
2022/12/22 10:28:19;;;;;;;31.67;17.30;;;8.10;99.90;;;;;;7365711;19;20106;-44
2022/12/22 10:31:22;;;;;;;27.88;16.88;;;8.00;99.90;;;;;;7363647;19;20477;-47
2022/12/22 10:33:51;;;;;;;28.75;14.50;;;7.80;99.90;;;;;;7368509;19;20014;-46
2022/12/22 10:36:23;;;;;;;31.33;14.77;;;7.80;99.90;;;;;;7364965;19;20458;-46
2022/12/22 10:38:52;;;;;;;24.83;14.70;;;7.80;99.90;;;;;;7362762;19;20593;-46
2022/12/22 10:41:21;;;;;;;28.63;15.30;;;7.70;99.90;;;;;;7348161;19;20022;-45
2022/12/22 10:43:54;;;;;;;23.77;14.52;;;7.70;99.90;;;;;;7353637;19;20023;-46
2022/12/22 10:46:46;;;;;;;30.27;14.32;;;7.70;99.90;;;;;;7351940;19;20799;-45
2022/12/22 10:49:24;;;;;;;28.38;13.93;;;7.70;99.90;;;;;;7351838;19;20014;-46
2022/12/22 10:51:57;;;;;;;27.52;15.18;;;7.80;99.90;;;;;;7347933;19;20023;-45
2022/12/22 10:54:37;;;;;;;22.33;13.43;;;7.90;99.90;;;;;;7353697;19;20030;-45
2022/12/22 10:57:19;;;;;;;22.95;14.07;;;7.90;99.90;;;;;;7349339;19;20025;-48
2022/12/22 10:59:50;;;;;;;27.48;13.75;;;8.00;99.90;;;;;;7352044;19;20546;-44
2022/12/22 11:02:21;;;;;;;26.13;12.57;;;8.00;99.90;;;;;;7354094;19;20085;-45
2022/12/22 11:04:48;;;;;;;23.75;13.40;;;8.10;99.90;;;;;;7346833;19;20045;-43
2022/12/22 11:07:15;;;;;;;23.17;13.18;;;8.20;99.90;;;;;;7351500;19;20022;-47
2022/12/22 11:09:42;;;;;;;26.20;14.15;;;8.10;99.90;;;;;;7351779;19;20026;-45
2022/12/22 11:12:38;;;;;;;26.10;16.02;;;8.10;99.90;;;;;;7348137;19;20025;-44
2022/12/22 11:15:20;;;;;;;22.27;13.77;;;8.10;99.90;;;;;;7356352;19;20026;-44
2022/12/22 11:17:59;;;;;;;24.33;13.88;;;8.10;99.90;;;;;;7350500;19;20706;-45
2022/12/22 11:20:40;;;;;;;25.38;14.15;;;8.20;99.90;;;;;;7350451;19;20310;-46
2022/12/22 11:23:37;;;;;;;20.95;12.82;;;8.50;99.90;;;;;;7348352;19;20110;-49
2022/12/22 11:26:22;;;;;;;23.42;13.57;;;8.50;99.90;;;;;;7352725;19;20015;-43
2022/12/22 11:28:48;;;;;;;18.30;12.00;;;8.80;99.90;;;;;;7350488;19;20014;-46
2022/12/22 11:31:30;;;;;;;16.95;10.80;;;9.00;99.90;;;;;;7356617;19;20398;-45
2022/12/22 11:34:18;;;;;;;18.60;11.07;;;9.20;99.90;;;;;;7353331;19;20600;-46
2022/12/22 11:37:01;;;;;;;15.15;9.82;;;9.10;99.90;;;;;;7353158;19;20473;-47
2022/12/22 11:39:43;;;;;;;20.73;10.82;;;9.00;99.90;;;;;;7354048;19;20023;-46
2022/12/22 11:42:24;;;;;;;21.13;10.57;;;8.90;99.90;;;;;;7352297;19;20021;-45
2022/12/22 11:45:19;;;;;;;19.65;11.65;;;8.90;99.90;;;;;;7352831;19;20026;-45
2022/12/22 11:48:20;;;;;;;15.98;11.05;;;8.90;99.90;;;;;;7346428;19;20438;-45
2022/12/22 11:51:20;;;;;;;16.50;11.07;;;8.80;99.90;;;;;;7356361;19;21435;-46
2022/12/22 11:54:34;;;;;;;14.82;10.52;;;8.90;99.90;;;;;;7356681;19;20044;-49
2022/12/22 11:57:21;;;;;;;14.90;10.13;;;9.00;99.90;;;;;;7350952;19;20022;-46
2022/12/22 12:00:09;;;;;;;13.18;9.23;;;9.30;99.90;;;;;;7349903;19;20137;-43
2022/12/22 12:02:49;;;;;;;16.27;9.73;;;9.30;99.90;;;;;;7359892;19;20598;-46
2022/12/22 12:05:27;;;;;;;17.60;10.68;;;9.50;99.90;;;;;;7353281;19;20011;-45
2022/12/22 12:08:30;;;;;;;18.45;8.75;;;9.70;99.90;;;;;;7350460;19;20018;-46
2022/12/22 12:11:26;;;;;;;16.55;9.60;;;9.70;99.90;;;;;;7366825;19;20050;-47
2022/12/22 12:14:02;;;;;;;14.15;8.35;;;10.10;99.90;;;;;;7355607;19;20454;-45
2022/12/22 12:16:37;;;;;;;15.93;8.60;;;10.40;99.90;;;;;;7359924;19;20038;-46
2022/12/22 12:19:21;;;;;;;13.10;8.18;;;10.50;99.90;;;;;;7356342;19;20018;-47
2022/12/22 12:21:52;;;;;;;13.02;8.02;;;10.60;99.90;;;;;;7353217;19;20327;-48
2022/12/22 12:24:37;;;;;;;15.07;8.18;;;10.80;99.90;;;;;;7358789;19;20459;-46
2022/12/22 12:27:10;;;;;;;14.07;8.55;;;11.00;99.90;;;;;;7356926;19;20619;-48
2022/12/22 12:30:01;;;;;;;15.50;8.40;;;11.10;99.90;;;;;;7352841;19;20015;-48
2022/12/22 12:32:56;;;;;;;15.02;7.72;;;11.40;99.90;;;;;;7357058;19;20015;-44
2022/12/22 12:35:44;;;;;;;16.73;8.13;;;11.60;99.90;;;;;;7355721;19;20598;-45
2022/12/22 12:38:29;;;;;;;15.82;7.63;;;11.60;99.90;;;;;;7357659;19;20474;-46
2022/12/22 12:41:11;;;;;;;20.20;7.50;;;11.30;99.90;;;;;;7361715;19;20022;-46
2022/12/22 12:43:38;;;;;;;15.40;8.02;;;11.00;99.90;;;;;;7359630;19;20466;-47
2022/12/22 12:46:44;;;;;;;16.77;8.35;;;10.90;99.90;;;;;;7360069;19;20110;-52
2022/12/22 12:49:32;;;;;;;14.32;8.15;;;11.00;99.90;;;;;;7357589;19;20021;-48
2022/12/22 12:52:06;;;;;;;19.20;8.98;;;10.90;99.90;;;;;;7359769;19;20468;-46
2022/12/22 12:54:35;;;;;;;16.60;8.57;;;11.00;99.90;;;;;;7358725;19;20029;-45
2022/12/22 12:57:47;;;;;;;17.48;8.85;;;10.80;99.90;;;;;;7358203;19;20018;-46
2022/12/22 13:00:33;;;;;;;17.38;9.23;;;10.60;99.90;;;;;;7361035;19;20019;-44
2022/12/22 13:03:08;;;;;;;17.50;8.95;;;10.60;99.90;;;;;;7358837;19;20490;-47
2022/12/22 13:05:49;;;;;;;18.60;8.57;;;11.10;99.90;;;;;;7360878;19;20482;-48
2022/12/22 13:08:17;;;;;;;;;;;11.50;99.90;;;;;;7360209;19;20058;-46
2022/12/22 13:10:55;;;;;;;14.90;7.97;;;11.30;99.90;;;;;;7359264;19;19926;-47
2022/12/22 13:13:23;;;;;;;17.05;10.15;;;11.10;99.90;;;;;;7355019;19;20389;-47
2022/12/22 13:15:59;;;;;;;16.73;9.02;;;10.80;99.90;;;;;;7354720;19;20031;-44
2022/12/22 13:18:27;;;;;;;19.77;9.35;;;10.60;99.90;;;;;;7352863;19;20597;-47
2022/12/22 13:21:06;;;;;;;19.45;9.20;;;10.50;99.90;;;;;;7351445;19;20067;-47
2022/12/22 13:23:40;;;;;;;16.40;8.85;;;10.30;99.90;;;;;;7356082;19;20626;-45
2022/12/22 13:26:11;;;;;;;16.00;7.78;;;10.30;99.90;;;;;;7348807;19;20365;-47
2022/12/22 13:28:41;;;;;;;15.10;7.47;;;10.30;99.90;;;;;;7349139;19;20418;-47
2022/12/22 13:31:27;;;;;;;15.07;8.23;;;10.30;99.90;;;;;;7352290;19;20030;-46
2022/12/22 13:34:06;;;;;;;14.60;8.13;;;10.20;99.90;;;;;;7347491;19;20063;-43
2022/12/22 13:36:33;;;;;;;16.08;9.00;;;10.50;99.90;;;;;;7354031;19;20489;-45
2022/12/22 13:39:02;;;;;;;19.73;7.55;;;10.80;99.90;;;;;;7352362;19;20022;-45
2022/12/22 13:41:29;;;;;;;16.13;7.45;;;10.80;99.90;;;;;;7355122;19;20076;-48
2022/12/22 13:44:07;;;;;;;24.35;8.05;;;10.50;99.90;;;;;;7349247;19;20037;-49
2022/12/22 13:46:36;;;;;;;14.43;7.50;;;10.40;99.90;;;;;;7355161;19;20781;-45
2022/12/22 13:49:06;;;;;;;11.35;6.93;;;10.30;99.90;;;;;;7354554;19;21265;-49
2022/12/22 13:51:37;;;;;;;13.77;7.45;;;10.10;99.90;;;;;;7352634;19;20044;-46
2022/12/22 13:54:19;;;;;;;16.88;7.43;;;10.10;99.90;;;;;;7352775;19;20019;-47
2022/12/22 13:56:51;;;;;;;15.30;8.00;;;10.30;99.90;;;;;;7350375;19;20026;-49
2022/12/22 13:59:26;;;;;;;13.55;8.25;;;10.40;99.90;;;;;;7354553;19;20014;-46
2022/12/22 14:02:00;;;;;;;14.43;7.45;;;11.20;99.90;;;;;;7355532;19;20021;-46
2022/12/22 14:04:28;;;;;;;14.52;7.18;;;11.60;99.90;;;;;;7350424;19;20029;-46
2022/12/22 14:06:55;;;;;;;15.88;6.80;;;11.60;99.90;;;;;;7353738;19;20018;-46
2022/12/22 14:09:26;;;;;;;12.60;6.63;;;11.50;99.90;;;;;;7351003;19;20026;-45
2022/12/22 14:12:05;;;;;;;13.07;6.88;;;11.10;99.90;;;;;;7357648;19;20054;-46
2022/12/22 14:14:40;;;;;;;11.02;6.78;;;10.70;99.90;;;;;;7346454;19;20018;-49
2022/12/22 14:17:34;;;;;;;15.60;8.25;;;10.30;99.90;;;;;;7350475;19;20018;-47
2022/12/22 14:20:16;;;;;;;16.83;8.20;;;10.00;99.90;;;;;;7350929;19;20432;-45
2022/12/22 14:23:14;;;;;;;12.50;7.90;;;9.70;99.90;;;;;;7354335;19;20025;-45
2022/12/22 14:25:43;;;;;;;15.55;7.72;;;9.60;99.90;;;;;;7352956;19;20021;-49
2022/12/22 14:28:26;;;;;;;14.75;7.63;;;9.50;99.90;;;;;;7348200;19;20018;-46
2022/12/22 14:30:55;;;;;;;17.63;8.77;;;9.50;99.90;;;;;;7354969;19;20025;-47
2022/12/22 14:33:31;;;;;;;17.25;7.78;;;9.40;99.90;;;;;;7354693;19;20029;-50
2022/12/22 14:36:19;;;;;;;14.95;8.25;;;9.40;99.90;;;;;;7357485;19;20018;-50
2022/12/22 14:38:51;;;;;;;12.68;7.53;;;9.40;99.90;;;;;;7361018;19;20796;-46
2022/12/22 14:41:45;;;;;;;18.55;7.70;;;9.30;99.90;;;;;;7366135;19;20022;-45
2022/12/22 14:44:26;;;;;;;14.55;7.22;;;9.30;99.90;;;;;;7366431;19;20018;-45
2022/12/22 14:47:10;;;;;;;16.08;7.07;;;9.30;99.90;;;;;;7361729;19;20027;-47
2022/12/22 14:49:58;;;;;;;15.52;7.25;;;9.20;99.90;;;;;;7360020;19;20102;-43
2022/12/22 14:52:42;;;;;;;14.77;6.95;;;9.20;99.90;;;;;;7359394;19;20070;-46
2022/12/22 14:55:23;;;;;;;14.82;6.72;;;9.20;99.90;;;;;;7364204;19;20026;-49
2022/12/22 14:57:55;;;;;;;17.10;7.22;;;9.20;99.90;;;;;;7363979;19;20376;-47
2022/12/22 15:00:21;;;;;;;13.65;7.13;;;9.10;99.90;;;;;;7366642;19;20048;-46
2022/12/22 15:02:54;;;;;;;16.85;7.28;;;9.10;99.90;;;;;;7366716;19;20473;-45
2022/12/22 15:05:27;;;;;;;14.85;7.13;;;9.00;99.90;;;;;;7365158;19;20493;-47
2022/12/22 15:07:56;;;;;;;14.40;6.68;;;9.00;99.90;;;;;;7362938;19;20532;-45
2022/12/22 15:10:25;;;;;;;12.82;6.88;;;8.90;99.90;;;;;;7364574;19;20018;-48
2022/12/22 15:12:58;;;;;;;14.60;7.13;;;8.80;99.90;;;;;;7360368;19;20014;-47
2022/12/22 15:15:26;;;;;;;12.40;7.07;;;8.80;99.90;;;;;;7363227;19;20015;-47
2022/12/22 15:17:53;;;;;;;11.43;7.25;;;8.80;99.90;;;;;;7359634;19;20466;-46
2022/12/22 15:20:26;;;;;;;15.25;7.68;;;8.70;99.90;;;;;;7360860;19;20022;-46
2022/12/22 15:22:52;;;;;;;16.48;8.10;;;8.70;99.90;;;;;;7346564;19;20030;-46
2022/12/22 15:25:22;;;;;;;17.92;8.32;;;8.70;99.90;;;;;;7356270;19;20505;-45
2022/12/22 15:27:49;;;;;;;17.65;7.75;;;8.70;99.90;;;;;;7361257;19;20018;-49
2022/12/22 15:30:20;;;;;;;12.95;7.63;;;8.70;99.90;;;;;;7358639;19;20121;-50
2022/12/22 15:32:46;;;;;;;13.45;7.38;;;8.70;99.90;;;;;;7361501;19;20018;-47
2022/12/22 15:35:22;;;;;;;12.98;7.68;;;8.70;99.90;;;;;;7364809;19;20525;-49
2022/12/22 15:37:49;;;;;;;12.80;8.10;;;8.80;99.90;;;;;;7367126;19;20023;-47
2022/12/22 15:40:23;;;;;;;13.95;9.25;;;8.80;99.90;;;;;;7362095;19;20029;-44
2022/12/22 15:42:50;;;;;;;11.88;8.63;;;8.80;99.90;;;;;;7363442;19;20579;-46
2022/12/22 15:45:17;;;;;;;14.32;8.77;;;8.70;99.90;;;;;;7363481;19;20461;-46
2022/12/22 15:47:51;;;;;;;14.40;9.85;;;8.70;99.90;;;;;;7365849;19;20470;-48
2022/12/22 15:50:22;;;;;;;12.10;8.80;;;8.70;99.90;;;;;;7362767;19;20968;-49
2022/12/22 15:52:52;;;;;;;12.55;9.00;;;8.70;99.90;;;;;;7370451;19;20026;-49
2022/12/22 15:55:19;;;;;;;11.80;9.80;;;8.70;99.90;;;;;;7372333;19;20712;-51
2022/12/22 15:57:50;;;;;;;14.35;9.38;;;8.70;99.90;;;;;;7363591;19;20028;-51
2022/12/22 16:00:17;;;;;;;14.83;9.90;;;8.70;99.90;;;;;;7368697;19;20390;-51
2022/12/22 16:02:44;;;;;;;15.43;9.90;;;8.70;99.90;;;;;;7369891;19;20018;-48
2022/12/22 16:05:11;;;;;;;16.42;12.75;;;8.70;99.90;;;;;;7361626;19;20029;-46
2022/12/22 16:07:39;;;;;;;18.50;12.52;;;8.70;99.90;;;;;;7356431;19;20019;-47
2022/12/22 16:10:16;;;;;;;23.45;14.07;;;8.70;99.90;;;;;;7354318;19;20015;-50
2022/12/22 16:12:52;;;;;;;20.63;15.02;;;8.70;99.90;;;;;;7358545;19;20556;-47
2022/12/22 16:15:19;;;;;;;19.35;15.27;;;8.70;99.90;;;;;;7357118;19;20022;-48
2022/12/22 16:17:46;;;;;;;19.83;15.15;;;8.70;99.90;;;;;;7368854;19;20018;-47
2022/12/22 16:20:13;;;;;;;18.45;15.80;;;8.70;99.90;;;;;;7364827;19;20122;-46
2022/12/22 16:22:41;;;;;;;24.08;16.83;;;8.70;99.90;;;;;;7366165;19;20085;-49
2022/12/22 16:25:13;;;;;;;23.42;17.58;;;8.70;99.90;;;;;;7365189;19;20018;-49
2022/12/22 16:27:41;;;;;;;24.85;16.65;;;8.70;99.90;;;;;;7367016;19;20034;-47
2022/12/22 16:30:22;;;;;;;22.38;17.60;;;8.60;99.90;;;;;;7361468;19;20369;-47
2022/12/22 16:32:49;;;;;;;21.73;17.67;;;8.60;99.90;;;;;;7365447;19;20010;-46
2022/12/22 16:35:18;;;;;;;24.70;18.35;;;8.60;99.90;;;;;;7359632;19;21255;-48
2022/12/22 16:37:45;;;;;;;25.48;18.70;;;8.50;99.90;;;;;;7359513;19;20774;-48
2022/12/22 16:40:12;;;;;;;27.55;18.02;;;8.50;99.90;;;;;;7364488;19;20035;-47
2022/12/22 16:42:41;;;;;;;23.30;18.40;;;8.50;99.90;;;;;;7363480;19;20018;-49
2022/12/22 16:45:17;;;;;;;29.83;18.67;;;8.40;99.90;;;;;;7362539;19;20412;-51